PDT,Max TemperatureF,Mean TemperatureF,Min TemperatureF,Max Dew PointF,MeanDew PointF,Min DewpointF,Max Humidity, Mean Humidity, Min Humidity, Max Sea Level PressureIn, Mean Sea Level PressureIn, Min Sea Level PressureIn, Max VisibilityMiles, Mean VisibilityMiles, Min VisibilityMiles, Max Wind SpeedMPH, Mean Wind SpeedMPH, Max Gust SpeedMPH,PrecipitationIn, CloudCover, Events, WindDirDegrees
2012-3-1,64,52,39,27,22,18,45,30,17,30.05,29.91,29.78,10,10,10,29,17,45,0.00,1,,228
2012-3-2,59,47,34,21,3,-11,52,23,6,30.36,30.28,30.08,10,10,10,10,5,20,0.00,0,,171
2012-3-3,68,48,27,1,-2,-5,25,15,7,30.46,30.37,30.31,10,10,10,10,3,,0.00,0,,199
2012-3-4,73,52,32,16,9,-1,31,18,9,30.32,30.21,30.10,10,10,10,10,3,,0.00,0,,183
2012-3-5,78,57,36,17,15,11,41,21,10,30.12,29.99,29.82,10,10,10,16,5,18,0.00,4,,204
2012-3-6,66,55,43,28,21,8,34,24,18,29.81,29.67,29.60,10,10,10,30,18,44,0.00,1,,249
2012-3-7,62,48,34,4,0,-6,25,14,6,30.12,30.01,29.62,10,10,10,23,11,28,0.00,0,,360
2012-3-8,73,52,30,10,5,0,29,14,7,30.36,30.30,30.25,10,10,10,9,4,,0.00,0,,202
2012-3-9,77,54,30,10,5,-1,28,14,6,30.36,30.23,30.09,10,10,10,7,3,,0.00,0,,169
2012-3-10,,,,,,,,,,,,,,,,,,,,,,
2012-3-10,,,,,,,,,,,,,,,,,,,,,,
2012-3-12,75,63,51,39,28,16,52,28,11,29.96,29.90,29.87,10,10,10,20,13,28,0.00,5,,230
2012-3-13,73,62,50,37,29,19,56,31,13,29.92,29.89,29.83,10,10,10,25,16,37,0.00,2,,217
2012-3-14,73,66,54,34,32,29,46,31,17,30.02,29.98,29.93,10,8,6,22,11,31,0.00,3,,211
2012-3-15,79,60,41,39,34,28,60,38,22,30.08,29.99,29.90,10,10,10,15,6,17,0.00,2,,180
2012-3-16,75,64,53,45,37,29,72,40,18,29.89,29.79,29.71,10,10,10,29,10,34,0.00,2,,213
2012-3-17,57,47,37,47,39,29,89,69,44,29.69,29.55,29.47,10,10,7,30,22,39,0.10,2,Rain,190
2012-3-18,54,45,37,31,21,15,79,41,23,29.74,29.62,29.51,10,10,10,30,17,41,0.00,0,,241
2012-3-19,57,44,30,26,17,10,57,35,16,30.01,29.86,29.72,10,10,10,12,7,,0.00,2,,196
2012-3-20,66,48,30,30,21,14,69,41,14,30.18,30.10,30.02,10,10,10,8,4,,0.00,1,,165
2012-3-21,79,57,37,34,29,24,76,35,16,30.13,30.02,29.92,10,10,10,12,5,,0.00,0,,197
2012-3-22,84,62,43,39,29,18,50,31,9,29.92,29.84,29.75,10,10,10,20,7,30,0.00,1,,196
2012-3-23,75,65,55,42,29,9,57,32,9,29.91,29.87,29.80,10,10,10,20,13,25,0.00,0,,185
2012-3-24,75,56,39,34,23,18,47,28,13,29.92,29.85,29.76,10,10,10,17,7,18,0.00,0,,172
2012-3-25,64,52,41,45,35,26,100,56,26,29.81,29.76,29.64,10,10,5,26,10,38,0.10,2,Rain,185
2012-3-26,64,53,42,34,30,25,70,46,26,30.03,29.96,29.83,10,10,10,23,15,30,0.00,3,,177
2012-3-27,72,56,39,32,26,16,67,38,12,30.04,29.97,29.89,10,10,10,22,8,32,0.00,3,,182
2012-3-28,73,61,50,36,32,28,47,35,23,29.95,29.91,29.84,10,10,10,18,12,29,0.00,4,,198
2012-3-29,75,57,41,42,35,32,73,45,22,30.04,29.95,29.88,10,10,10,7,3,,0.00,5,,172
2012-3-30,84,64,45,40,37,35,68,40,19,29.99,29.89,29.80,10,10,10,16,3,24,0.00,0,,196
2012-3-31,78,64,48,42,33,19,50,34,12,29.82,29.77,29.72,10,10,10,26,17,38,0.00,1,,212